createdAt,value
2018-06-12T00:00:38.093Z,17.83
2018-06-12T00:05:41.157Z,16.17
2018-06-12T00:10:44.149Z,16.07
2018-06-12T00:15:47.154Z,16.30
2018-06-12T00:20:50.172Z,26.57
2018-06-12T00:25:53.157Z,14.83
2018-06-12T00:30:56.158Z,17.80
2018-06-12T00:35:59.194Z,15.90
2018-06-12T00:41:02.165Z,20.87
2018-06-12T00:46:05.181Z,26.43
2018-06-12T00:51:08.218Z,23.97
2018-06-12T00:56:27.332Z,19.37
2018-06-12T01:01:30.310Z,17.00
2018-06-12T01:06:33.310Z,21.20
2018-06-12T01:11:36.330Z,18.00
2018-06-12T01:16:39.404Z,14.53
2018-06-12T01:21:42.427Z,20.30
2018-06-12T01:26:45.438Z,25.37
2018-06-12T01:31:48.471Z,20.23
2018-06-12T01:36:51.525Z,19.23
2018-06-12T01:41:54.592Z,18.33
2018-06-12T01:46:57.653Z,19.43
2018-06-12T01:52:00.656Z,17.17
2018-06-12T01:57:03.665Z,23.97
2018-06-12T02:02:06.685Z,14.60
2018-06-12T02:07:09.693Z,17.00
2018-06-12T02:12:12.658Z,18.00
2018-06-12T02:17:15.746Z,15.17
2018-06-12T02:22:18.734Z,15.03
2018-06-12T02:27:21.718Z,17.00
2018-06-12T02:32:24.718Z,16.00
2018-06-12T02:37:27.692Z,14.20
2018-06-12T02:42:30.721Z,16.50
2018-06-12T02:47:33.739Z,16.03
2018-06-12T02:52:36.790Z,18.30
2018-06-12T02:57:39.956Z,14.33
2018-06-12T03:02:42.965Z,14.43
2018-06-12T03:07:45.978Z,11.57
2018-06-12T03:12:48.995Z,15.93
2018-06-12T03:17:51.997Z,13.27
2018-06-12T03:22:55.045Z,15.23
2018-06-12T03:27:58.071Z,13.83
2018-06-12T03:33:01.058Z,14.87
2018-06-12T03:38:04.037Z,19.67
2018-06-12T03:43:07.281Z,13.27
2018-06-12T03:48:12.080Z,16.30
2018-06-12T03:53:15.157Z,15.77
2018-06-12T03:58:18.174Z,12.13
2018-06-12T04:03:21.336Z,14.73
2018-06-12T04:08:24.561Z,13.57
2018-06-12T04:13:27.671Z,12.70
2018-06-12T04:18:30.728Z,8.30
2018-06-12T04:23:33.859Z,11.17
2018-06-12T04:28:37.629Z,14.07
2018-06-12T04:33:40.746Z,9.90
2018-06-12T04:38:43.805Z,14.97
2018-06-12T04:43:46.854Z,16.43
2018-06-12T04:48:49.860Z,16.50
2018-06-12T04:53:53.146Z,17.50
2018-06-12T04:58:56.173Z,10.10
2018-06-12T05:03:59.173Z,7.27
2018-06-12T05:09:02.266Z,17.47
2018-06-12T05:14:05.383Z,10.60
2018-06-12T05:19:08.381Z,9.20
2018-06-12T05:24:11.702Z,8.03
2018-06-12T05:29:14.723Z,9.97
2018-06-12T05:34:17.711Z,6.07
2018-06-12T05:39:20.694Z,12.00
2018-06-12T05:44:23.689Z,8.27
2018-06-12T05:49:26.729Z,9.87
2018-06-12T05:54:29.714Z,4.60
2018-06-12T05:59:32.731Z,4.17
2018-06-12T06:04:35.754Z,6.43
2018-06-12T06:09:38.808Z,4.53
2018-06-12T06:14:41.846Z,6.53
2018-06-12T06:19:44.838Z,11.87
2018-06-12T06:24:47.933Z,4.20
2018-06-12T06:29:50.897Z,6.50
2018-06-12T06:34:53.925Z,8.00
2018-06-12T06:39:56.930Z,3.07
2018-06-12T06:44:59.954Z,3.87
2018-06-12T06:50:03.057Z,6.00
2018-06-12T06:55:06.090Z,11.57
2018-06-12T07:00:09.134Z,8.03
2018-06-12T07:05:12.129Z,9.60
2018-06-12T07:10:15.165Z,4.57
2018-06-12T07:15:18.178Z,4.40
2018-06-12T07:20:38.969Z,7.90
2018-06-12T07:25:41.981Z,6.83
2018-06-12T07:30:44.964Z,14.43
2018-06-12T07:35:47.934Z,7.17
2018-06-12T07:40:51.031Z,4.67
2018-06-12T07:45:54.030Z,5.30
2018-06-12T07:50:57.017Z,5.10
2018-06-12T07:56:00.046Z,10.83
2018-06-12T08:01:03.101Z,3.90
2018-06-12T08:06:06.111Z,4.23
2018-06-12T08:11:09.162Z,4.80
2018-06-12T08:16:11.644Z,6.07
2018-06-12T08:21:14.642Z,5.77
2018-06-12T08:26:17.699Z,3.00
2018-06-12T08:31:20.706Z,3.80
2018-06-12T08:36:23.702Z,5.10
2018-06-12T08:41:26.685Z,5.53
2018-06-12T08:46:29.783Z,6.50
2018-06-12T08:51:32.800Z,3.97
2018-06-12T08:56:35.857Z,3.43
2018-06-12T09:01:38.885Z,5.60
2018-06-12T09:06:41.895Z,6.30
2018-06-12T09:11:44.894Z,5.00
2018-06-12T09:16:47.906Z,8.63
2018-06-12T09:21:50.897Z,5.10
2018-06-12T09:26:53.938Z,5.57
2018-06-12T09:31:56.962Z,3.40
2018-06-12T09:37:00.016Z,4.27
2018-06-12T09:42:03.102Z,6.90
2018-06-12T09:47:06.093Z,5.40
2018-06-12T09:52:09.135Z,3.00
2018-06-12T09:57:12.210Z,6.30
2018-06-12T10:02:15.253Z,5.60
2018-06-12T10:07:18.262Z,10.43
2018-06-12T10:12:21.269Z,6.63
2018-06-12T10:17:24.333Z,3.97
2018-06-12T10:22:27.474Z,4.17
2018-06-12T10:27:30.482Z,2.90
2018-06-12T10:32:33.466Z,5.20
2018-06-12T10:37:36.497Z,3.73
2018-06-12T10:42:39.566Z,6.57
2018-06-12T10:47:42.566Z,4.03
2018-06-12T10:52:45.587Z,5.70
2018-06-12T10:57:48.636Z,4.13
2018-06-12T11:02:51.699Z,6.20
2018-06-12T11:07:54.747Z,7.10
2018-06-12T11:12:57.742Z,3.30
2018-06-12T11:18:00.746Z,6.73
2018-06-12T11:23:03.832Z,6.63
2018-06-12T11:28:06.858Z,10.73
2018-06-12T11:33:09.951Z,4.63
2018-06-12T11:38:12.959Z,9.67
2018-06-12T11:43:15.966Z,4.20
2018-06-12T11:48:18.970Z,4.97
2018-06-12T11:53:21.975Z,3.60
2018-06-12T11:58:24.969Z,3.73
2018-06-12T12:03:27.955Z,5.13
2018-06-12T12:08:30.996Z,3.00
2018-06-12T12:13:34.079Z,5.27
2018-06-12T12:18:37.195Z,6.03
2018-06-12T12:23:40.255Z,14.53
2018-06-12T12:28:43.344Z,6.00
2018-06-12T12:33:46.319Z,7.87
2018-06-12T12:38:49.321Z,4.33
2018-06-12T12:43:52.309Z,3.40
2018-06-12T12:48:55.303Z,4.67
2018-06-12T12:53:58.317Z,7.53
2018-06-12T12:59:01.329Z,4.63
2018-06-12T13:04:04.381Z,6.37
2018-06-12T13:09:07.726Z,4.73
2018-06-12T13:14:10.742Z,11.50
2018-06-12T13:19:13.713Z,7.10
2018-06-12T13:24:16.783Z,6.07
2018-06-12T13:29:19.838Z,6.73
2018-06-12T13:34:22.919Z,5.30
2018-06-12T13:39:29.069Z,5.73
2018-06-12T13:44:32.134Z,3.23
2018-06-12T13:49:35.134Z,3.43
2018-06-12T13:54:38.179Z,7.83
2018-06-12T13:59:41.362Z,6.47
2018-06-12T14:04:44.455Z,3.67
2018-06-12T14:09:47.451Z,4.43
2018-06-12T14:14:50.492Z,4.10
2018-06-12T14:19:53.507Z,3.73
2018-06-12T14:24:56.550Z,9.47
2018-06-12T14:29:59.610Z,6.30
2018-06-12T14:35:02.689Z,4.93
2018-06-12T14:40:05.790Z,8.07
2018-06-12T14:45:08.854Z,8.50
2018-06-12T14:50:12.028Z,4.33
2018-06-12T14:55:15.097Z,5.43
2018-06-12T15:00:18.161Z,2.73
2018-06-12T15:05:22.192Z,2.67
2018-06-12T15:10:25.206Z,9.67
2018-06-12T15:15:28.258Z,9.00
2018-06-12T15:20:31.482Z,2.97
2018-06-12T15:25:34.514Z,3.63
2018-06-12T15:30:37.742Z,5.73
2018-06-12T15:35:40.870Z,5.40
2018-06-12T15:40:43.883Z,4.90
2018-06-12T15:45:46.899Z,4.70
2018-06-12T15:50:49.918Z,3.43
2018-06-12T15:55:52.970Z,3.13
2018-06-12T16:00:56.084Z,5.37
2018-06-12T16:05:59.162Z,10.80
2018-06-12T16:11:02.222Z,3.53
2018-06-12T16:16:05.406Z,7.17
2018-06-12T16:21:08.536Z,7.00
2018-06-12T16:26:11.632Z,8.20
2018-06-12T16:31:14.603Z,5.73
2018-06-12T16:36:17.605Z,6.57
2018-06-12T16:41:20.739Z,5.60
2018-06-12T16:46:23.811Z,7.90
2018-06-12T16:51:26.810Z,4.20
2018-06-12T16:56:29.883Z,4.60
2018-06-12T17:01:32.968Z,19.13
2018-06-12T17:06:36.068Z,5.30
2018-06-12T17:11:39.127Z,5.47
2018-06-12T17:16:42.177Z,5.70
2018-06-12T17:21:45.207Z,4.20
2018-06-12T17:26:48.306Z,7.57
2018-06-12T17:31:51.459Z,4.70
2018-06-12T17:36:54.516Z,3.40
2018-06-12T17:41:57.523Z,4.10
2018-06-12T17:47:00.543Z,9.57
2018-06-12T17:52:03.606Z,3.43
2018-06-12T17:57:06.651Z,5.90
2018-06-12T18:02:09.946Z,5.07
2018-06-12T18:07:12.987Z,5.53
2018-06-12T18:12:16.008Z,11.43
2018-06-12T18:17:19.048Z,4.70
2018-06-12T18:22:22.798Z,5.13
2018-06-12T18:27:26.719Z,3.67
2018-06-12T18:32:30.003Z,5.00
2018-06-12T18:37:33.070Z,7.60
2018-06-12T18:42:36.066Z,10.83
2018-06-12T18:47:39.451Z,6.00
2018-06-12T18:52:42.916Z,3.20
2018-06-12T18:57:45.957Z,3.23
2018-06-12T19:02:49.233Z,2.90
2018-06-12T19:07:52.318Z,2.20
2018-06-12T19:12:55.443Z,8.20
2018-06-12T19:17:58.545Z,5.70
2018-06-12T19:23:01.619Z,4.87
2018-06-12T19:28:04.762Z,3.67
2018-06-12T19:33:07.809Z,6.30
2018-06-12T19:38:10.945Z,3.20
2018-06-12T19:43:14.365Z,6.77
2018-06-12T19:48:17.419Z,7.00
2018-06-12T19:53:20.510Z,3.07
2018-06-12T19:58:23.587Z,3.17
2018-06-12T20:03:26.643Z,3.33
2018-06-12T20:08:29.708Z,2.40
2018-06-12T20:13:32.731Z,3.33
2018-06-12T20:18:35.737Z,5.67
2018-06-12T20:23:38.919Z,2.23
2018-06-12T20:28:42.006Z,3.60
2018-06-12T20:33:45.044Z,1.90
2018-06-12T20:38:48.057Z,2.13
2018-06-12T20:43:51.438Z,2.20
2018-06-12T20:48:54.501Z,2.60
2018-06-12T20:53:57.549Z,2.63
2018-06-12T20:59:00.601Z,2.33
2018-06-12T21:04:03.694Z,3.87
2018-06-12T21:09:06.755Z,4.00
2018-06-12T21:14:09.759Z,2.50
2018-06-12T21:19:12.795Z,2.63
2018-06-12T21:24:15.806Z,5.67
2018-06-12T21:29:18.830Z,4.30
2018-06-12T21:34:21.930Z,4.33
2018-06-12T21:39:24.933Z,3.37
2018-06-12T21:44:27.987Z,5.10
2018-06-12T21:49:31.045Z,5.03
2018-06-12T21:54:34.052Z,4.87
2018-06-12T21:59:37.058Z,2.20
2018-06-12T22:04:40.104Z,2.90
2018-06-12T22:09:43.078Z,4.30
2018-06-12T22:14:46.168Z,2.60
2018-06-12T22:19:49.158Z,12.00
2018-06-12T22:24:52.162Z,2.30
2018-06-12T22:29:55.138Z,2.63
2018-06-12T22:34:58.158Z,2.70
2018-06-12T22:40:01.165Z,2.70
2018-06-12T22:45:04.301Z,2.20
2018-06-12T22:50:07.301Z,2.27
2018-06-12T22:55:10.297Z,2.30
2018-06-12T23:00:20.412Z,4.73
2018-06-12T23:05:23.393Z,2.07
2018-06-12T23:10:26.401Z,2.20
2018-06-12T23:15:29.442Z,6.20
2018-06-12T23:22:04.246Z,2.13
2018-06-12T23:27:07.261Z,7.43
2018-06-12T23:32:10.270Z,2.10
2018-06-12T23:37:13.266Z,3.13
2018-06-12T23:42:16.273Z,7.17
2018-06-12T23:47:19.269Z,6.70
2018-06-12T23:52:22.316Z,3.73
2018-06-12T23:57:25.378Z,4.03
